createdAt,value
2018-06-27T00:00:43.782Z,13.28
2018-06-27T00:03:11.320Z,13.32
2018-06-27T00:05:38.421Z,13.31
2018-06-27T00:08:05.469Z,13.31
2018-06-27T00:10:32.555Z,13.24
2018-06-27T00:12:59.725Z,13.18
2018-06-27T00:15:26.770Z,13.21
2018-06-27T00:17:53.969Z,13.12
2018-06-27T00:20:21.041Z,13.10
2018-06-27T00:22:48.148Z,13.10
2018-06-27T00:25:16.301Z,13.05
2018-06-27T00:27:50.042Z,13.06
2018-06-27T00:30:17.294Z,12.98
2018-06-27T00:32:44.377Z,12.98
2018-06-27T00:35:11.541Z,12.98
2018-06-27T00:37:38.622Z,12.95
2018-06-27T00:40:05.785Z,12.92
2018-06-27T00:42:32.864Z,12.94
2018-06-27T00:44:59.941Z,12.90
2018-06-27T00:47:27.007Z,12.93
2018-06-27T00:49:54.053Z,12.91
2018-06-27T00:52:21.161Z,12.87
2018-06-27T00:54:48.224Z,12.87
2018-06-27T00:57:15.259Z,12.90
2018-06-27T00:59:42.342Z,12.81
2018-06-27T01:02:09.369Z,12.87
2018-06-27T01:04:36.493Z,12.88
2018-06-27T01:07:03.641Z,12.83
2018-06-27T01:09:30.729Z,12.78
2018-06-27T01:11:57.791Z,12.80
2018-06-27T01:14:24.940Z,12.75
2018-06-27T01:16:52.081Z,12.69
2018-06-27T01:19:19.183Z,12.64
2018-06-27T01:21:46.429Z,12.62
2018-06-27T01:24:13.492Z,12.69
2018-06-27T01:26:40.545Z,12.68
2018-06-27T01:31:57.985Z,12.61
2018-06-27T01:34:25.106Z,12.57
2018-06-27T04:06:09.099Z,13.16
2018-06-27T04:08:36.126Z,13.20
2018-06-27T04:11:03.154Z,13.26
2018-06-27T04:13:30.326Z,13.29
2018-06-27T04:15:57.445Z,13.34
2018-06-27T04:18:24.468Z,13.38
2018-06-27T04:20:51.509Z,13.43
2018-06-27T04:23:18.608Z,13.51
2018-06-27T04:25:45.698Z,13.56
2018-06-27T04:28:12.737Z,13.61
2018-06-27T04:30:39.779Z,13.68
2018-06-27T04:33:06.851Z,13.73
2018-06-27T04:35:33.925Z,13.75
2018-06-27T04:38:01.042Z,13.79
2018-06-27T04:40:28.101Z,13.87
2018-06-27T04:42:55.159Z,13.96
2018-06-27T04:45:22.205Z,14.04
2018-06-27T04:47:49.276Z,14.17
2018-06-27T04:50:16.363Z,14.33
2018-06-27T04:52:43.446Z,14.40
2018-06-27T04:55:10.655Z,14.44
2018-06-27T04:57:37.854Z,14.51
2018-06-27T05:00:05.010Z,14.54
2018-06-27T05:02:32.126Z,14.49
2018-06-27T05:04:59.264Z,14.58
2018-06-27T05:07:26.331Z,14.57
2018-06-27T05:09:53.401Z,14.71
2018-06-27T05:12:21.021Z,14.85
2018-06-27T05:14:48.081Z,14.81
2018-06-27T05:17:15.117Z,14.73
2018-06-27T05:19:43.473Z,14.82
2018-06-27T05:22:10.906Z,14.96
2018-06-27T05:24:37.973Z,15.06
2018-06-27T05:27:05.277Z,15.11
2018-06-27T05:29:32.354Z,15.51
2018-06-27T05:31:59.422Z,15.50
2018-06-27T05:34:26.474Z,15.54
2018-06-27T05:36:53.552Z,15.61
2018-06-27T05:39:20.615Z,15.72
2018-06-27T05:41:47.661Z,15.74
2018-06-27T05:44:14.803Z,15.80
2018-06-27T05:46:41.816Z,15.73
2018-06-27T05:49:08.868Z,16.03
2018-06-27T05:51:36.041Z,16.07
2018-06-27T05:54:03.136Z,16.09
2018-06-27T05:56:30.211Z,16.16
2018-06-27T05:58:57.375Z,16.19
2018-06-27T06:01:24.514Z,16.28
2018-06-27T06:03:51.613Z,16.30
2018-06-27T06:06:18.766Z,16.38
2018-06-27T06:08:45.946Z,16.45
2018-06-27T06:11:13.075Z,16.56
2018-06-27T06:13:40.145Z,16.60
2018-06-27T06:16:07.193Z,16.61
2018-06-27T06:18:34.235Z,16.70
2018-06-27T06:21:01.380Z,16.78
2018-06-27T06:23:28.466Z,16.84
2018-06-27T06:25:55.530Z,16.78
2018-06-27T06:28:22.617Z,16.81
2018-06-27T06:30:49.682Z,16.92
2018-06-27T06:33:16.813Z,17.01
2018-06-27T06:35:43.865Z,17.04
2018-06-27T06:38:10.932Z,17.06
2018-06-27T06:40:38.033Z,17.10
2018-06-27T06:43:05.114Z,17.27
2018-06-27T06:45:32.202Z,17.43
2018-06-27T06:47:59.499Z,17.54
2018-06-27T06:50:26.562Z,17.69
2018-06-27T06:52:53.655Z,17.81
2018-06-27T06:55:21.185Z,17.84
2018-06-27T06:57:48.278Z,17.72
2018-06-27T07:00:15.352Z,17.97
2018-06-27T07:02:42.834Z,17.89
2018-06-27T07:05:09.884Z,17.93
2018-06-27T07:07:36.906Z,17.87
2018-06-27T07:10:10.738Z,18.00
2018-06-27T07:12:37.857Z,18.13
2018-06-27T07:15:04.986Z,18.24
2018-06-27T07:17:32.057Z,18.36
2018-06-27T07:19:59.107Z,18.48
2018-06-27T07:22:26.557Z,18.58
2018-06-27T07:24:53.727Z,18.68
2018-06-27T07:27:20.932Z,18.84
2018-06-27T07:29:48.020Z,18.94
2018-06-27T07:32:15.175Z,19.08
2018-06-27T07:34:42.225Z,19.09
2018-06-27T07:37:09.330Z,19.14
2018-06-27T07:39:36.403Z,19.18
2018-06-27T07:42:03.572Z,19.23
2018-06-27T07:44:30.626Z,19.30
2018-06-27T07:46:57.799Z,19.35
2018-06-27T07:49:24.918Z,19.37
2018-06-27T07:51:52.033Z,19.53
2018-06-27T07:54:19.338Z,19.69
2018-06-27T07:56:46.378Z,19.77
2018-06-27T07:59:13.423Z,19.84
2018-06-27T08:01:40.425Z,19.86
2018-06-27T08:04:07.485Z,19.99
2018-06-27T08:06:46.281Z,20.01
2018-06-27T08:09:13.354Z,20.10
2018-06-27T08:11:41.312Z,20.11
2018-06-27T08:14:08.529Z,20.13
2018-06-27T08:16:35.703Z,20.22
2018-06-27T08:19:02.746Z,20.19
2018-06-27T08:21:29.876Z,20.24
2018-06-27T08:23:56.897Z,20.34
2018-06-27T08:26:24.168Z,20.41
2018-06-27T08:28:51.161Z,20.50
2018-06-27T08:31:18.493Z,20.65
2018-06-27T08:33:45.646Z,20.72
2018-06-27T08:36:12.661Z,20.68
2018-06-27T08:38:39.678Z,20.59
2018-06-27T08:41:06.725Z,20.62
2018-06-27T08:43:33.737Z,20.64
2018-06-27T08:46:01.020Z,20.58
2018-06-27T08:48:28.083Z,20.54
2018-06-27T08:50:55.089Z,20.61
2018-06-27T08:53:22.271Z,20.77
2018-06-27T08:55:49.837Z,20.93
2018-06-27T08:58:16.853Z,21.15
2018-06-27T09:00:44.033Z,21.33
2018-06-27T09:03:11.026Z,21.43
2018-06-27T09:05:38.231Z,21.45
2018-06-27T09:08:05.251Z,21.51
2018-06-27T09:10:32.349Z,21.64
2018-06-27T09:12:59.369Z,21.76
2018-06-27T09:15:26.761Z,21.83
2018-06-27T09:17:53.801Z,21.86
2018-06-27T09:20:20.850Z,21.83
2018-06-27T09:22:48.273Z,21.77
2018-06-27T09:25:15.702Z,21.76
2018-06-27T09:27:42.702Z,21.83
2018-06-27T09:30:09.839Z,21.91
2018-06-27T09:32:36.926Z,21.96
2018-06-27T09:35:04.167Z,22.16
2018-06-27T09:37:31.561Z,22.29
2018-06-27T09:39:58.721Z,22.29
2018-06-27T09:42:25.743Z,22.36
2018-06-27T09:44:52.838Z,22.41
2018-06-27T09:47:19.975Z,22.50
2018-06-27T09:49:46.994Z,22.56
2018-06-27T09:52:14.166Z,22.60
2018-06-27T09:54:41.487Z,22.68
2018-06-27T09:57:10.333Z,22.73
2018-06-27T09:59:37.347Z,22.78
2018-06-27T10:02:04.402Z,22.98
2018-06-27T10:04:31.728Z,22.97
2018-06-27T10:06:58.981Z,23.08
2018-06-27T10:09:26.594Z,23.20
2018-06-27T10:11:53.700Z,23.25
2018-06-27T10:14:21.184Z,23.26
2018-06-27T10:16:48.351Z,23.32
2018-06-27T10:19:15.341Z,23.40
2018-06-27T10:21:42.446Z,23.51
2018-06-27T10:24:09.822Z,23.65
2018-06-27T10:26:36.989Z,23.85
2018-06-27T10:29:04.411Z,23.84
2018-06-27T10:31:31.598Z,23.94
2018-06-27T10:33:58.786Z,23.92
2018-06-27T10:36:26.267Z,23.96
2018-06-27T10:38:53.880Z,23.99
2018-06-27T10:41:21.199Z,24.04
2018-06-27T10:43:48.299Z,23.93
2018-06-27T10:46:16.370Z,23.95
2018-06-27T10:48:43.407Z,24.06
2018-06-27T10:51:10.603Z,24.08
2018-06-27T10:53:37.614Z,24.04
2018-06-27T10:56:04.673Z,24.14
2018-06-27T10:58:31.788Z,24.10
2018-06-27T11:00:58.862Z,24.20
2018-06-27T11:03:25.905Z,24.31
2018-06-27T11:05:52.957Z,24.27
2018-06-27T11:08:19.970Z,24.31
2018-06-27T11:10:47.031Z,24.27
2018-06-27T11:13:14.067Z,24.45
2018-06-27T11:15:41.107Z,24.32
2018-06-27T11:18:08.122Z,24.16
2018-06-27T11:20:35.137Z,24.20
2018-06-27T11:23:02.284Z,24.13
2018-06-27T11:25:29.387Z,24.02
2018-06-27T11:27:56.478Z,24.14
2018-06-27T11:30:23.478Z,24.28
2018-06-27T11:32:50.952Z,24.27
2018-06-27T11:35:17.977Z,24.32
2018-06-27T11:37:45.016Z,24.29
2018-06-27T11:40:12.136Z,24.35
2018-06-27T11:42:39.153Z,24.39
2018-06-27T11:45:06.458Z,24.22
2018-06-27T11:47:33.574Z,24.00
2018-06-27T11:50:00.603Z,23.71
2018-06-27T11:52:27.669Z,23.77
2018-06-27T11:55:00.499Z,23.99
2018-06-27T11:57:27.597Z,24.14
2018-06-27T11:59:54.842Z,24.23
2018-06-27T12:02:21.931Z,24.35
2018-06-27T12:04:49.101Z,24.38
2018-06-27T12:07:16.622Z,24.50
2018-06-27T12:09:43.970Z,24.73
2018-06-27T12:12:11.097Z,24.92
2018-06-27T12:14:38.333Z,25.09
2018-06-27T12:17:05.349Z,25.09
2018-06-27T12:19:32.374Z,25.32
2018-06-27T12:21:59.382Z,25.40
2018-06-27T12:24:26.420Z,25.54
2018-06-27T12:26:53.518Z,25.57
2018-06-27T12:29:20.533Z,25.67
2018-06-27T12:31:47.834Z,25.46
2018-06-27T12:34:14.854Z,25.82
2018-06-27T12:36:41.851Z,25.82
2018-06-27T12:39:09.195Z,26.27
2018-06-27T12:41:36.750Z,25.99
2018-06-27T12:44:03.770Z,25.99
2018-06-27T12:46:30.880Z,26.32
2018-06-27T12:48:57.914Z,26.45
2018-06-27T12:51:25.017Z,26.76
2018-06-27T12:53:52.058Z,26.73
2018-06-27T12:56:19.227Z,26.60
2018-06-27T12:58:46.360Z,26.72
2018-06-27T13:01:13.386Z,26.79
2018-06-27T13:03:40.414Z,26.63
2018-06-27T13:06:07.453Z,26.94
2018-06-27T13:08:34.461Z,26.97
2018-06-27T13:11:01.691Z,27.25
2018-06-27T13:13:28.793Z,27.04
2018-06-27T13:15:55.833Z,27.30
2018-06-27T13:18:22.932Z,27.43
2018-06-27T13:20:50.093Z,27.52
2018-06-27T13:23:17.242Z,27.06
2018-06-27T13:25:44.269Z,27.36
2018-06-27T13:28:11.369Z,27.28
2018-06-27T13:30:38.408Z,27.26
2018-06-27T13:33:05.703Z,27.27
2018-06-27T13:35:32.748Z,27.61
2018-06-27T13:38:00.076Z,27.77
2018-06-27T13:40:27.133Z,27.48
2018-06-27T13:42:54.204Z,27.54
2018-06-27T13:45:21.221Z,27.98
2018-06-27T13:47:48.252Z,28.05
2018-06-27T13:50:15.318Z,27.97
2018-06-27T13:52:42.350Z,28.10
2018-06-27T13:55:09.489Z,27.68
2018-06-27T13:57:36.521Z,27.56
2018-06-27T14:00:03.989Z,27.59
2018-06-27T14:02:30.997Z,27.80
2018-06-27T14:04:58.090Z,28.18
2018-06-27T14:07:25.296Z,27.72
2018-06-27T14:09:52.510Z,27.50
2018-06-27T14:12:19.600Z,27.82
2018-06-27T14:14:46.638Z,28.30
2018-06-27T14:17:13.766Z,28.82
2018-06-27T14:19:40.859Z,28.59
2018-06-27T14:22:09.310Z,28.25
2018-06-27T14:24:37.116Z,27.35
2018-06-27T14:27:04.255Z,27.47
2018-06-27T14:29:41.849Z,27.44
2018-06-27T14:32:12.797Z,27.77
2018-06-27T14:34:43.724Z,28.13
2018-06-27T14:37:15.061Z,28.36
2018-06-27T14:40:01.106Z,28.15
2018-06-27T14:42:35.239Z,28.19
2018-06-27T14:45:23.813Z,28.15
2018-06-27T14:48:05.798Z,27.85
2018-06-27T14:51:27.738Z,27.67
2018-06-27T14:54:00.995Z,26.88
2018-06-27T14:56:31.813Z,26.61
2018-06-27T14:59:07.315Z,26.76
2018-06-27T15:01:38.597Z,26.73
2018-06-27T15:04:14.759Z,26.61
2018-06-27T15:06:49.268Z,26.63
2018-06-27T15:09:21.722Z,26.96
2018-06-27T15:11:50.910Z,27.13
2018-06-27T15:14:24.531Z,26.97
2018-06-27T15:16:54.994Z,26.75
2018-06-27T15:19:28.316Z,27.22
2018-06-27T15:22:07.373Z,26.79
2018-06-27T15:24:46.788Z,26.49
2018-06-27T15:27:17.766Z,26.78
2018-06-27T15:29:51.066Z,26.79
2018-06-27T15:32:29.649Z,26.63
2018-06-27T15:37:37.561Z,26.54
2018-06-27T15:40:12.266Z,26.19
2018-06-27T15:42:46.859Z,25.99
2018-06-27T15:45:27.452Z,26.06
2018-06-27T15:47:59.267Z,25.92
2018-06-27T15:50:34.709Z,25.59
2018-06-27T15:53:05.393Z,25.46
2018-06-27T15:55:37.149Z,25.44
2018-06-27T15:58:12.526Z,25.19
2018-06-27T16:03:22.637Z,25.18
2018-06-27T16:05:53.062Z,25.51
2018-06-27T16:08:22.628Z,25.39
2018-06-27T16:10:55.727Z,25.36
2018-06-27T16:13:28.295Z,25.38
2018-06-27T16:16:02.839Z,25.41
2018-06-27T16:18:39.201Z,25.29
2018-06-27T16:21:10.259Z,25.62
2018-06-27T16:23:43.794Z,25.20
2018-06-27T16:26:13.033Z,25.10
2018-06-27T16:28:47.222Z,25.02
2018-06-27T16:31:23.585Z,24.97
2018-06-27T16:33:56.826Z,24.74
2018-06-27T16:36:35.946Z,24.64
2018-06-27T16:41:48.818Z,24.53
2018-06-27T16:44:22.248Z,24.60
2018-06-27T16:46:52.893Z,24.35
2018-06-27T16:49:24.248Z,24.39
2018-06-27T16:51:54.290Z,24.40
2018-06-27T16:54:25.476Z,24.19
2018-06-27T16:56:56.299Z,23.91
2018-06-27T16:59:30.091Z,23.77
2018-06-27T17:01:59.861Z,23.72
2018-06-27T17:04:31.532Z,23.55
2018-06-27T17:07:07.752Z,23.52
2018-06-27T17:09:34.827Z,23.55
2018-06-27T17:12:01.970Z,23.42
2018-06-27T17:14:29.105Z,23.31
2018-06-27T17:16:56.122Z,23.15
2018-06-27T17:19:23.270Z,23.11
2018-06-27T17:21:50.412Z,22.95
2018-06-27T17:24:24.381Z,22.95
2018-06-27T17:26:51.761Z,23.00
2018-06-27T17:29:18.846Z,23.05
2018-06-27T17:31:45.979Z,22.81
2018-06-27T17:34:12.996Z,22.76
2018-06-27T17:36:40.066Z,22.73
2018-06-27T17:39:08.312Z,22.67
2018-06-27T17:41:35.493Z,22.59
2018-06-27T17:44:03.197Z,22.50
2018-06-27T17:46:30.202Z,22.38
2018-06-27T17:49:27.531Z,22.25
2018-06-27T17:51:54.561Z,22.24
2018-06-27T17:54:21.645Z,22.18
2018-06-27T17:56:48.761Z,22.11
2018-06-27T17:59:15.961Z,22.11
2018-06-27T18:01:43.079Z,22.05
2018-06-27T18:04:10.155Z,21.98
2018-06-27T18:06:37.504Z,21.88
2018-06-27T18:09:07.088Z,21.88
2018-06-27T18:11:34.102Z,21.79
2018-06-27T18:14:01.162Z,21.70
2018-06-27T18:16:28.219Z,21.64
2018-06-27T18:18:55.242Z,21.54
2018-06-27T18:21:22.281Z,21.59
2018-06-27T18:23:49.357Z,21.51
2018-06-27T18:26:16.426Z,21.47
2018-06-27T18:28:43.522Z,21.47
2018-06-27T18:31:10.541Z,21.42
2018-06-27T18:33:37.633Z,21.39
2018-06-27T18:36:04.706Z,21.36
2018-06-27T18:38:31.737Z,21.39
2018-06-27T18:40:58.801Z,21.19
2018-06-27T18:43:25.786Z,21.20
2018-06-27T18:45:52.829Z,21.12
2018-06-27T18:48:19.890Z,21.05
2018-06-27T18:50:47.322Z,21.02
2018-06-27T18:53:15.293Z,20.86
2018-06-27T18:55:42.432Z,20.89
2018-06-27T18:58:09.549Z,20.88
2018-06-27T19:00:36.829Z,20.88
2018-06-27T19:03:04.005Z,20.73
2018-06-27T19:05:31.082Z,20.71
2018-06-27T19:07:58.174Z,20.73
2018-06-27T19:10:25.250Z,19.55
2018-06-27T19:12:52.871Z,20.61
2018-06-27T19:15:20.275Z,20.59
2018-06-27T19:17:47.427Z,20.57
2018-06-27T19:20:14.918Z,20.50
2018-06-27T19:22:41.941Z,20.44
2018-06-27T19:25:08.992Z,20.35
2018-06-27T19:27:36.573Z,20.31
2018-06-27T19:30:04.248Z,20.29
2018-06-27T19:32:31.511Z,20.21
2018-06-27T19:34:58.607Z,20.14
2018-06-27T19:37:25.610Z,20.13
2018-06-27T19:39:52.677Z,20.14
2018-06-27T19:42:19.965Z,19.93
2018-06-27T19:44:47.077Z,19.94
2018-06-27T19:47:14.246Z,19.87
2018-06-27T19:49:41.656Z,19.90
2018-06-27T19:52:08.986Z,19.88
2018-06-27T19:54:36.430Z,19.82
2018-06-27T19:57:03.457Z,19.81
2018-06-27T19:59:30.454Z,19.75
2018-06-27T20:01:57.473Z,19.57
2018-06-27T20:04:24.639Z,19.53
2018-06-27T20:06:51.864Z,19.41
2018-06-27T20:09:18.844Z,19.40
2018-06-27T20:11:45.922Z,19.36
2018-06-27T20:14:13.521Z,19.38
2018-06-27T20:16:40.505Z,19.28
2018-06-27T20:19:07.806Z,19.18
2018-06-27T20:21:34.881Z,19.20
2018-06-27T20:24:01.910Z,19.14
2018-06-27T20:26:31.186Z,18.99
2018-06-27T20:28:58.857Z,19.00
2018-06-27T20:31:25.962Z,18.99
2018-06-27T20:33:52.972Z,18.94
2018-06-27T20:36:20.653Z,18.86
2018-06-27T20:38:47.671Z,18.76
2018-06-27T20:41:15.111Z,18.77
2018-06-27T20:43:42.154Z,18.72
2018-06-27T20:46:09.278Z,18.61
2018-06-27T20:48:36.266Z,18.62
2018-06-27T20:51:03.343Z,18.51
2018-06-27T20:53:30.371Z,18.43
2018-06-27T20:55:57.564Z,18.45
2018-06-27T20:58:24.600Z,18.43
2018-06-27T21:00:52.354Z,18.35
2018-06-27T21:03:19.646Z,18.18
2018-06-27T21:05:46.750Z,18.26
2018-06-27T21:08:13.799Z,18.20
2018-06-27T21:10:40.871Z,18.21
2018-06-27T21:13:07.982Z,18.06
2018-06-27T21:15:35.065Z,18.11
2018-06-27T21:18:02.093Z,18.07
2018-06-27T21:20:29.118Z,18.05
2018-06-27T21:22:56.258Z,18.01
2018-06-27T21:25:23.301Z,17.97
2018-06-27T21:27:50.446Z,17.83
2018-06-27T21:30:17.483Z,17.80
2018-06-27T21:32:44.576Z,17.71
2018-06-27T21:35:11.613Z,17.70
2018-06-27T21:37:38.633Z,17.66
2018-06-27T21:40:05.730Z,17.64
2018-06-27T21:42:32.897Z,17.56
2018-06-27T21:45:00.021Z,17.54
2018-06-27T21:47:27.077Z,17.48
2018-06-27T21:49:54.287Z,17.48
2018-06-27T21:52:21.311Z,17.48
2018-06-27T21:54:48.391Z,17.44
2018-06-27T21:57:15.600Z,17.40
2018-06-27T21:59:42.712Z,17.36
2018-06-27T22:02:09.823Z,17.34
2018-06-27T22:04:36.888Z,17.30
2018-06-27T22:07:04.006Z,17.24
2018-06-27T22:09:31.190Z,17.31
2018-06-27T22:11:58.327Z,17.25
2018-06-27T22:14:25.370Z,17.25
2018-06-27T22:16:52.546Z,17.18
2018-06-27T22:19:19.625Z,17.15
2018-06-27T22:21:46.773Z,17.14
2018-06-27T22:24:13.739Z,17.12
2018-06-27T22:26:40.838Z,17.08
2018-06-27T22:29:07.974Z,17.08
2018-06-27T22:31:34.999Z,17.03
2018-06-27T22:34:02.466Z,16.97
2018-06-27T22:36:29.478Z,17.00
2018-06-27T22:38:56.481Z,16.99
2018-06-27T22:41:23.854Z,16.93
2018-06-27T22:43:50.871Z,16.89
2018-06-27T22:46:17.896Z,16.89
2018-06-27T22:48:45.404Z,16.87
2018-06-27T22:51:12.589Z,16.86
2018-06-27T22:53:39.609Z,16.80
2018-06-27T22:56:06.722Z,16.79
2018-06-27T22:58:33.818Z,16.76
2018-06-27T23:01:00.937Z,16.70
2018-06-27T23:03:27.970Z,16.67
2018-06-27T23:05:55.105Z,16.64
2018-06-27T23:08:22.122Z,16.63
2018-06-27T23:10:49.226Z,16.63
2018-06-27T23:13:16.253Z,16.59
2018-06-27T23:15:43.362Z,16.53
2018-06-27T23:18:10.533Z,16.50
2018-06-27T23:20:37.997Z,16.53
2018-06-27T23:23:05.129Z,16.57
2018-06-27T23:25:32.225Z,16.59
2018-06-27T23:27:59.317Z,16.56
2018-06-27T23:30:26.369Z,16.49
2018-06-27T23:32:53.388Z,16.45
2018-06-27T23:35:20.424Z,16.41
2018-06-27T23:37:47.536Z,16.31
2018-06-27T23:40:14.636Z,16.19
2018-06-27T23:42:41.695Z,16.16
2018-06-27T23:45:08.729Z,16.07
2018-06-27T23:47:35.751Z,16.15
2018-06-27T23:50:03.182Z,16.10
2018-06-27T23:52:30.249Z,16.02
2018-06-27T23:54:57.295Z,16.00
2018-06-27T23:57:24.337Z,16.02
2018-06-27T23:59:51.459Z,16.00
